罗盘
风向 的 风向 210° Laichingen Airport 7/25
风: 10 kt, 3 beaufort

8 kt

6 kt
改变
0 1.000 2.000 3.000 4.000 5.000
CAVOK
METAR EDJA 170620Z 21010KT CAVOK 18/14 Q1012

METAR Laichingen Airport - EDPJ

Laichingen Airport是Laichingen,德国中的小机场。 该机场有一条跑道: 7/25. 该领域的国际民航组织标志是EDPJ.

这份报告是针对2022年8月17日 08:20, 当地时间在Memmingen Allgau Airport进行的。

机场观察

风向为210°,速度为10 kt。

天气为CAVOK。这意味着在5.000 ft或MSA(最低安全高度)以下(以较高者为准)以下没有云。这也意味着没有观测到积雨云或高耸的积云,可见度为10 km 或者更多或更高。此外,不会有雾,降雨或其他重要天气。

温度和风寒是18 °C。 露点为14 °C,相对湿度为78%。 海平面上的气压为1012 hPa (QNH)。

白天

今天,太阳从06:17升起,在20:33降落。 这适用于Laichingen Airport,世界夏令时可能有所不同。 当地时间与世界标准时间之间的时差为+2 小时。 夏令时目前正在进行中。

公司介绍

我们没有关于这个机场的公司信息。

体会

到Vliegles.nl去找飞行课程,跳伞和其他飞行体验。 浏览页面,了解Laichingen Airport附近所有可用的活动。 你也可以使用搜索功能来寻找你所在地附近的特定飞行课程、跳伞或其他飞行体验。

跑道

Id 标题 侧风 逆风 侧风 %
7/25 067°-247° 6 kt 8 kt 60 %

逆风成分最大的方向会被突出显示,并用于横风计算。 这并不一定意味着这个方向在使用。

温度 & 天气

温度 18 °C
露点 14 °C
相对湿度 78%
Kp-index 1  

白天

日出
06:16
中午
13:23
日落
20:29 (11h 41m)

小工具

你想在你的网站上有一个关于Laichingen Airport的当前航空天气(METAR)的小部件吗?

</> 显示HTML代码

我们和第三方通过cookies跟踪您在我们网站上的上网行为。如果您继续,我们认为您同意我们的cookie政策。 了解更多